sensor_id;sensor_type;location;lat;lon;timestamp;P1;durP1;ratioP1;P2;durP2;ratioP2
12554;SDS011;6343;50.868;4.700;2023-04-24T00:00:11;14.27;;;6.90;;
12554;SDS011;6343;50.868;4.700;2023-04-24T00:02:40;14.20;;;7.10;;
12554;SDS011;6343;50.868;4.700;2023-04-24T00:05:06;13.77;;;7.40;;
12554;SDS011;6343;50.868;4.700;2023-04-24T00:07:34;13.03;;;7.00;;
12554;SDS011;6343;50.868;4.700;2023-04-24T00:10:00;10.47;;;7.17;;
12554;SDS011;6343;50.868;4.700;2023-04-24T00:12:26;14.53;;;7.43;;
12554;SDS011;6343;50.868;4.700;2023-04-24T00:14:53;10.87;;;7.07;;
12554;SDS011;6343;50.868;4.700;2023-04-24T00:17:19;16.20;;;8.03;;
12554;SDS011;6343;50.868;4.700;2023-04-24T00:19:46;17.63;;;7.97;;
12554;SDS011;6343;50.868;4.700;2023-04-24T00:22:12;10.90;;;7.07;;
12554;SDS011;6343;50.868;4.700;2023-04-24T00:24:38;13.47;;;7.83;;
12554;SDS011;6343;50.868;4.700;2023-04-24T00:27:04;15.70;;;8.50;;
12554;SDS011;6343;50.868;4.700;2023-04-24T00:29:31;18.13;;;7.43;;
12554;SDS011;6343;50.868;4.700;2023-04-24T00:31:57;16.30;;;8.00;;
12554;SDS011;6343;50.868;4.700;2023-04-24T00:34:23;14.30;;;8.73;;
12554;SDS011;6343;50.868;4.700;2023-04-24T00:36:49;17.90;;;7.67;;
12554;SDS011;6343;50.868;4.700;2023-04-24T00:39:20;13.23;;;7.70;;
12554;SDS011;6343;50.868;4.700;2023-04-24T00:41:46;15.40;;;7.63;;
12554;SDS011;6343;50.868;4.700;2023-04-24T00:44:13;13.73;;;7.90;;
12554;SDS011;6343;50.868;4.700;2023-04-24T00:46:40;12.30;;;7.43;;
12554;SDS011;6343;50.868;4.700;2023-04-24T00:49:06;13.70;;;7.70;;
12554;SDS011;6343;50.868;4.700;2023-04-24T00:51:32;12.57;;;6.93;;
12554;SDS011;6343;50.868;4.700;2023-04-24T00:53:59;13.87;;;7.80;;
12554;SDS011;6343;50.868;4.700;2023-04-24T00:56:26;11.83;;;8.30;;
12554;SDS011;6343;50.868;4.700;2023-04-24T00:58:52;10.83;;;7.90;;
12554;SDS011;6343;50.868;4.700;2023-04-24T01:01:21;15.60;;;7.93;;
12554;SDS011;6343;50.868;4.700;2023-04-24T01:03:51;14.07;;;7.73;;
12554;SDS011;6343;50.868;4.700;2023-04-24T01:06:18;15.07;;;8.03;;
12554;SDS011;6343;50.868;4.700;2023-04-24T01:08:45;12.97;;;7.63;;
12554;SDS011;6343;50.868;4.700;2023-04-24T01:11:12;17.03;;;8.37;;
12554;SDS011;6343;50.868;4.700;2023-04-24T01:13:38;13.23;;;7.57;;
12554;SDS011;6343;50.868;4.700;2023-04-24T01:16:06;17.93;;;8.47;;
12554;SDS011;6343;50.868;4.700;2023-04-24T01:18:32;13.93;;;7.93;;
12554;SDS011;6343;50.868;4.700;2023-04-24T01:20:59;18.70;;;8.13;;
12554;SDS011;6343;50.868;4.700;2023-04-24T01:23:28;11.13;;;7.53;;
12554;SDS011;6343;50.868;4.700;2023-04-24T01:25:55;18.47;;;8.10;;
12554;SDS011;6343;50.868;4.700;2023-04-24T01:28:21;10.97;;;7.13;;
12554;SDS011;6343;50.868;4.700;2023-04-24T01:30:48;13.07;;;7.77;;
12554;SDS011;6343;50.868;4.700;2023-04-24T01:33:14;13.00;;;7.20;;
12554;SDS011;6343;50.868;4.700;2023-04-24T01:35:40;15.70;;;6.80;;
12554;SDS011;6343;50.868;4.700;2023-04-24T01:38:06;9.37;;;6.30;;
12554;SDS011;6343;50.868;4.700;2023-04-24T01:40:32;9.73;;;6.43;;
12554;SDS011;6343;50.868;4.700;2023-04-24T01:42:59;9.00;;;6.20;;
12554;SDS011;6343;50.868;4.700;2023-04-24T01:45:25;9.80;;;5.90;;
12554;SDS011;6343;50.868;4.700;2023-04-24T01:47:51;12.33;;;7.27;;
12554;SDS011;6343;50.868;4.700;2023-04-24T01:50:18;9.20;;;6.27;;
12554;SDS011;6343;50.868;4.700;2023-04-24T01:52:44;11.27;;;6.83;;
12554;SDS011;6343;50.868;4.700;2023-04-24T01:55:10;10.63;;;6.70;;
12554;SDS011;6343;50.868;4.700;2023-04-24T01:57:36;10.10;;;6.87;;
12554;SDS011;6343;50.868;4.700;2023-04-24T02:00:03;7.23;;;5.73;;
12554;SDS011;6343;50.868;4.700;2023-04-24T02:02:30;8.83;;;6.13;;
12554;SDS011;6343;50.868;4.700;2023-04-24T02:04:56;10.03;;;6.40;;
12554;SDS011;6343;50.868;4.700;2023-04-24T02:07:23;9.93;;;6.13;;
12554;SDS011;6343;50.868;4.700;2023-04-24T02:09:49;9.03;;;6.33;;
12554;SDS011;6343;50.868;4.700;2023-04-24T02:12:15;8.13;;;5.63;;
12554;SDS011;6343;50.868;4.700;2023-04-24T02:14:42;9.13;;;6.23;;
12554;SDS011;6343;50.868;4.700;2023-04-24T02:17:09;11.70;;;6.17;;
12554;SDS011;6343;50.868;4.700;2023-04-24T02:19:37;9.17;;;6.00;;
12554;SDS011;6343;50.868;4.700;2023-04-24T02:22:04;10.97;;;6.37;;
12554;SDS011;6343;50.868;4.700;2023-04-24T02:24:30;13.03;;;6.53;;
12554;SDS011;6343;50.868;4.700;2023-04-24T02:26:56;7.57;;;5.80;;
12554;SDS011;6343;50.868;4.700;2023-04-24T02:29:23;9.53;;;6.50;;
12554;SDS011;6343;50.868;4.700;2023-04-24T02:31:49;10.67;;;7.27;;
12554;SDS011;6343;50.868;4.700;2023-04-24T02:34:15;10.27;;;7.20;;
12554;SDS011;6343;50.868;4.700;2023-04-24T02:36:41;12.03;;;7.17;;
12554;SDS011;6343;50.868;4.700;2023-04-24T02:39:08;8.60;;;6.83;;
12554;SDS011;6343;50.868;4.700;2023-04-24T02:41:34;12.47;;;7.20;;
12554;SDS011;6343;50.868;4.700;2023-04-24T02:44:00;11.17;;;7.03;;
12554;SDS011;6343;50.868;4.700;2023-04-24T02:46:26;11.00;;;7.40;;
12554;SDS011;6343;50.868;4.700;2023-04-24T02:48:52;11.73;;;7.60;;
12554;SDS011;6343;50.868;4.700;2023-04-24T02:51:18;11.53;;;8.37;;
12554;SDS011;6343;50.868;4.700;2023-04-24T02:53:45;11.67;;;7.53;;
12554;SDS011;6343;50.868;4.700;2023-04-24T02:56:11;8.73;;;7.23;;
12554;SDS011;6343;50.868;4.700;2023-04-24T02:58:37;11.77;;;6.80;;
12554;SDS011;6343;50.868;4.700;2023-04-24T03:01:03;10.20;;;6.73;;
12554;SDS011;6343;50.868;4.700;2023-04-24T03:03:30;12.13;;;7.03;;
12554;SDS011;6343;50.868;4.700;2023-04-24T03:05:56;10.87;;;7.40;;
12554;SDS011;6343;50.868;4.700;2023-04-24T03:08:22;10.43;;;7.10;;
12554;SDS011;6343;50.868;4.700;2023-04-24T03:10:48;7.77;;;6.33;;
12554;SDS011;6343;50.868;4.700;2023-04-24T03:13:15;10.10;;;6.63;;
12554;SDS011;6343;50.868;4.700;2023-04-24T03:15:41;10.20;;;6.03;;
12554;SDS011;6343;50.868;4.700;2023-04-24T03:18:08;10.97;;;6.30;;
12554;SDS011;6343;50.868;4.700;2023-04-24T03:20:34;10.87;;;6.40;;
12554;SDS011;6343;50.868;4.700;2023-04-24T03:23:01;8.13;;;5.70;;
12554;SDS011;6343;50.868;4.700;2023-04-24T03:25:28;6.43;;;5.27;;
12554;SDS011;6343;50.868;4.700;2023-04-24T03:27:54;9.97;;;5.73;;
12554;SDS011;6343;50.868;4.700;2023-04-24T03:30:20;8.80;;;6.10;;
12554;SDS011;6343;50.868;4.700;2023-04-24T03:32:46;7.47;;;5.33;;
12554;SDS011;6343;50.868;4.700;2023-04-24T03:35:12;7.77;;;5.43;;
12554;SDS011;6343;50.868;4.700;2023-04-24T03:37:38;8.37;;;4.80;;
12554;SDS011;6343;50.868;4.700;2023-04-24T03:40:05;8.57;;;5.33;;
12554;SDS011;6343;50.868;4.700;2023-04-24T03:42:32;5.57;;;4.77;;
12554;SDS011;6343;50.868;4.700;2023-04-24T03:44:58;6.47;;;5.03;;
12554;SDS011;6343;50.868;4.700;2023-04-24T03:47:24;8.97;;;5.77;;
12554;SDS011;6343;50.868;4.700;2023-04-24T03:49:50;6.00;;;5.20;;
12554;SDS011;6343;50.868;4.700;2023-04-24T03:52:17;8.40;;;5.20;;
12554;SDS011;6343;50.868;4.700;2023-04-24T03:54:43;8.60;;;5.63;;
12554;SDS011;6343;50.868;4.700;2023-04-24T03:57:09;7.20;;;5.63;;
12554;SDS011;6343;50.868;4.700;2023-04-24T03:59:35;11.10;;;5.70;;
12554;SDS011;6343;50.868;4.700;2023-04-24T04:02:01;7.17;;;5.37;;
12554;SDS011;6343;50.868;4.700;2023-04-24T04:04:27;11.13;;;5.47;;
12554;SDS011;6343;50.868;4.700;2023-04-24T04:06:53;7.47;;;4.73;;
12554;SDS011;6343;50.868;4.700;2023-04-24T04:09:19;7.60;;;5.20;;
12554;SDS011;6343;50.868;4.700;2023-04-24T04:11:45;5.07;;;4.30;;
12554;SDS011;6343;50.868;4.700;2023-04-24T04:14:11;6.10;;;3.80;;
12554;SDS011;6343;50.868;4.700;2023-04-24T04:16:37;5.97;;;4.17;;
12554;SDS011;6343;50.868;4.700;2023-04-24T04:19:04;6.77;;;4.37;;
12554;SDS011;6343;50.868;4.700;2023-04-24T04:21:30;4.67;;;3.50;;
12554;SDS011;6343;50.868;4.700;2023-04-24T04:23:57;5.07;;;3.47;;
12554;SDS011;6343;50.868;4.700;2023-04-24T04:26:23;5.73;;;3.63;;
12554;SDS011;6343;50.868;4.700;2023-04-24T04:28:51;6.93;;;3.40;;
12554;SDS011;6343;50.868;4.700;2023-04-24T04:31:17;5.27;;;3.00;;
12554;SDS011;6343;50.868;4.700;2023-04-24T04:33:43;4.50;;;3.40;;
12554;SDS011;6343;50.868;4.700;2023-04-24T04:36:09;8.40;;;4.40;;
12554;SDS011;6343;50.868;4.700;2023-04-24T04:38:37;5.43;;;3.47;;
12554;SDS011;6343;50.868;4.700;2023-04-24T04:41:03;4.50;;;3.20;;
12554;SDS011;6343;50.868;4.700;2023-04-24T04:43:29;4.10;;;3.07;;
12554;SDS011;6343;50.868;4.700;2023-04-24T04:45:56;3.70;;;3.00;;
12554;SDS011;6343;50.868;4.700;2023-04-24T04:48:23;9.10;;;3.23;;
12554;SDS011;6343;50.868;4.700;2023-04-24T04:50:49;3.60;;;2.93;;
12554;SDS011;6343;50.868;4.700;2023-04-24T04:53:16;4.17;;;3.07;;
12554;SDS011;6343;50.868;4.700;2023-04-24T04:55:42;4.50;;;3.13;;
12554;SDS011;6343;50.868;4.700;2023-04-24T04:58:08;8.10;;;3.50;;
12554;SDS011;6343;50.868;4.700;2023-04-24T05:00:34;5.20;;;3.30;;
12554;SDS011;6343;50.868;4.700;2023-04-24T05:03:02;3.93;;;3.07;;
12554;SDS011;6343;50.868;4.700;2023-04-24T05:05:28;3.50;;;3.17;;
12554;SDS011;6343;50.868;4.700;2023-04-24T05:07:55;4.43;;;3.63;;
12554;SDS011;6343;50.868;4.700;2023-04-24T05:10:21;4.13;;;3.47;;
12554;SDS011;6343;50.868;4.700;2023-04-24T05:12:47;6.47;;;3.83;;
12554;SDS011;6343;50.868;4.700;2023-04-24T05:15:14;7.77;;;3.97;;
12554;SDS011;6343;50.868;4.700;2023-04-24T05:17:40;6.73;;;4.63;;
12554;SDS011;6343;50.868;4.700;2023-04-24T05:20:06;6.83;;;4.70;;
12554;SDS011;6343;50.868;4.700;2023-04-24T05:22:33;7.23;;;4.27;;
12554;SDS011;6343;50.868;4.700;2023-04-24T05:24:59;9.03;;;4.70;;
12554;SDS011;6343;50.868;4.700;2023-04-24T05:27:25;10.30;;;4.63;;
12554;SDS011;6343;50.868;4.700;2023-04-24T05:29:51;8.13;;;4.60;;
12554;SDS011;6343;50.868;4.700;2023-04-24T05:32:17;9.10;;;5.00;;
12554;SDS011;6343;50.868;4.700;2023-04-24T05:34:43;8.27;;;4.60;;
12554;SDS011;6343;50.868;4.700;2023-04-24T05:37:10;9.50;;;5.13;;
12554;SDS011;6343;50.868;4.700;2023-04-24T05:39:36;8.90;;;5.47;;
12554;SDS011;6343;50.868;4.700;2023-04-24T05:42:03;8.00;;;5.27;;
12554;SDS011;6343;50.868;4.700;2023-04-24T05:44:29;11.57;;;5.33;;
12554;SDS011;6343;50.868;4.700;2023-04-24T05:46:56;8.33;;;5.23;;
12554;SDS011;6343;50.868;4.700;2023-04-24T05:49:22;10.90;;;5.67;;
12554;SDS011;6343;50.868;4.700;2023-04-24T05:51:48;6.70;;;5.27;;
12554;SDS011;6343;50.868;4.700;2023-04-24T05:54:14;9.10;;;5.40;;
12554;SDS011;6343;50.868;4.700;2023-04-24T05:56:40;12.30;;;5.90;;
12554;SDS011;6343;50.868;4.700;2023-04-24T05:59:06;11.00;;;5.77;;
12554;SDS011;6343;50.868;4.700;2023-04-24T06:01:33;9.37;;;5.83;;
12554;SDS011;6343;50.868;4.700;2023-04-24T06:03:59;11.00;;;6.20;;
12554;SDS011;6343;50.868;4.700;2023-04-24T06:06:25;8.37;;;6.03;;
12554;SDS011;6343;50.868;4.700;2023-04-24T06:08:52;8.57;;;6.27;;
12554;SDS011;6343;50.868;4.700;2023-04-24T06:11:18;11.40;;;6.80;;
12554;SDS011;6343;50.868;4.700;2023-04-24T06:13:44;8.67;;;6.10;;
12554;SDS011;6343;50.868;4.700;2023-04-24T06:16:10;11.10;;;7.07;;
12554;SDS011;6343;50.868;4.700;2023-04-24T06:18:36;14.13;;;7.30;;
12554;SDS011;6343;50.868;4.700;2023-04-24T06:21:03;16.10;;;7.30;;
12554;SDS011;6343;50.868;4.700;2023-04-24T06:23:30;15.27;;;8.57;;
12554;SDS011;6343;50.868;4.700;2023-04-24T06:25:57;12.37;;;7.77;;
12554;SDS011;6343;50.868;4.700;2023-04-24T06:28:23;14.47;;;8.10;;
12554;SDS011;6343;50.868;4.700;2023-04-24T06:30:50;16.17;;;7.93;;
12554;SDS011;6343;50.868;4.700;2023-04-24T06:33:16;14.87;;;8.43;;
12554;SDS011;6343;50.868;4.700;2023-04-24T06:35:42;15.07;;;7.50;;
12554;SDS011;6343;50.868;4.700;2023-04-24T06:38:08;10.87;;;7.77;;
12554;SDS011;6343;50.868;4.700;2023-04-24T06:40:34;12.83;;;7.50;;
12554;SDS011;6343;50.868;4.700;2023-04-24T06:43:00;12.53;;;8.07;;
12554;SDS011;6343;50.868;4.700;2023-04-24T06:45:28;15.30;;;8.40;;
12554;SDS011;6343;50.868;4.700;2023-04-24T06:47:54;15.70;;;8.10;;
12554;SDS011;6343;50.868;4.700;2023-04-24T06:50:21;17.20;;;7.90;;
12554;SDS011;6343;50.868;4.700;2023-04-24T06:52:47;11.57;;;8.30;;
12554;SDS011;6343;50.868;4.700;2023-04-24T06:55:13;12.90;;;7.77;;
12554;SDS011;6343;50.868;4.700;2023-04-24T06:57:41;14.93;;;8.10;;
12554;SDS011;6343;50.868;4.700;2023-04-24T07:00:07;11.93;;;7.40;;
12554;SDS011;6343;50.868;4.700;2023-04-24T07:02:34;13.47;;;8.20;;
12554;SDS011;6343;50.868;4.700;2023-04-24T07:05:00;13.67;;;8.63;;
12554;SDS011;6343;50.868;4.700;2023-04-24T07:07:26;16.37;;;9.23;;
12554;SDS011;6343;50.868;4.700;2023-04-24T07:09:53;17.73;;;8.53;;
12554;SDS011;6343;50.868;4.700;2023-04-24T07:12:19;18.93;;;9.93;;
12554;SDS011;6343;50.868;4.700;2023-04-24T07:14:46;14.97;;;9.40;;
12554;SDS011;6343;50.868;4.700;2023-04-24T07:17:13;18.63;;;9.47;;
12554;SDS011;6343;50.868;4.700;2023-04-24T07:19:39;21.90;;;10.30;;
12554;SDS011;6343;50.868;4.700;2023-04-24T07:22:06;18.27;;;9.43;;
12554;SDS011;6343;50.868;4.700;2023-04-24T07:24:32;13.80;;;9.10;;
12554;SDS011;6343;50.868;4.700;2023-04-24T07:26:58;18.50;;;9.43;;
12554;SDS011;6343;50.868;4.700;2023-04-24T07:29:26;16.93;;;9.40;;
12554;SDS011;6343;50.868;4.700;2023-04-24T07:31:52;17.73;;;9.67;;
12554;SDS011;6343;50.868;4.700;2023-04-24T07:34:19;21.43;;;9.80;;
12554;SDS011;6343;50.868;4.700;2023-04-24T07:36:45;22.30;;;9.23;;
12554;SDS011;6343;50.868;4.700;2023-04-24T07:39:12;14.23;;;8.70;;
12554;SDS011;6343;50.868;4.700;2023-04-24T07:41:38;16.43;;;9.03;;
12554;SDS011;6343;50.868;4.700;2023-04-24T07:44:04;18.63;;;9.90;;
12554;SDS011;6343;50.868;4.700;2023-04-24T07:46:30;17.73;;;9.40;;
12554;SDS011;6343;50.868;4.700;2023-04-24T07:48:57;19.83;;;9.40;;
12554;SDS011;6343;50.868;4.700;2023-04-24T07:51:24;16.87;;;9.13;;
12554;SDS011;6343;50.868;4.700;2023-04-24T07:53:52;14.50;;;8.77;;
12554;SDS011;6343;50.868;4.700;2023-04-24T07:56:20;14.67;;;8.70;;
12554;SDS011;6343;50.868;4.700;2023-04-24T07:58:46;16.00;;;8.70;;
12554;SDS011;6343;50.868;4.700;2023-04-24T08:01:12;16.83;;;7.77;;
12554;SDS011;6343;50.868;4.700;2023-04-24T08:03:38;15.97;;;7.87;;
12554;SDS011;6343;50.868;4.700;2023-04-24T08:06:04;12.77;;;7.13;;
12554;SDS011;6343;50.868;4.700;2023-04-24T08:08:30;9.97;;;7.07;;
12554;SDS011;6343;50.868;4.700;2023-04-24T08:10:57;13.03;;;7.20;;
12554;SDS011;6343;50.868;4.700;2023-04-24T08:13:23;13.53;;;6.83;;
12554;SDS011;6343;50.868;4.700;2023-04-24T08:15:49;12.90;;;6.73;;
12554;SDS011;6343;50.868;4.700;2023-04-24T08:18:15;14.97;;;6.67;;
12554;SDS011;6343;50.868;4.700;2023-04-24T08:20:41;13.40;;;6.30;;
12554;SDS011;6343;50.868;4.700;2023-04-24T08:23:07;10.17;;;6.53;;
12554;SDS011;6343;50.868;4.700;2023-04-24T08:25:34;15.83;;;6.40;;
12554;SDS011;6343;50.868;4.700;2023-04-24T08:28:01;12.53;;;5.93;;
12554;SDS011;6343;50.868;4.700;2023-04-24T08:30:28;11.43;;;5.93;;
12554;SDS011;6343;50.868;4.700;2023-04-24T08:32:54;13.00;;;6.40;;
12554;SDS011;6343;50.868;4.700;2023-04-24T08:35:20;14.87;;;6.57;;
12554;SDS011;6343;50.868;4.700;2023-04-24T08:37:46;14.07;;;6.67;;
12554;SDS011;6343;50.868;4.700;2023-04-24T08:40:13;11.40;;;6.37;;
12554;SDS011;6343;50.868;4.700;2023-04-24T08:42:41;14.60;;;6.53;;
12554;SDS011;6343;50.868;4.700;2023-04-24T08:45:08;18.83;;;6.60;;
12554;SDS011;6343;50.868;4.700;2023-04-24T08:47:35;9.40;;;6.53;;
12554;SDS011;6343;50.868;4.700;2023-04-24T08:50:02;13.50;;;6.97;;
12554;SDS011;6343;50.868;4.700;2023-04-24T08:52:32;13.70;;;6.20;;
12554;SDS011;6343;50.868;4.700;2023-04-24T08:54:58;13.37;;;6.47;;
12554;SDS011;6343;50.868;4.700;2023-04-24T08:57:26;12.87;;;5.90;;
12554;SDS011;6343;50.868;4.700;2023-04-24T08:59:53;14.70;;;6.27;;
12554;SDS011;6343;50.868;4.700;2023-04-24T09:02:19;13.40;;;5.60;;
12554;SDS011;6343;50.868;4.700;2023-04-24T09:04:45;11.70;;;5.40;;
12554;SDS011;6343;50.868;4.700;2023-04-24T09:07:12;12.10;;;6.27;;
12554;SDS011;6343;50.868;4.700;2023-04-24T09:09:40;11.03;;;5.07;;
12554;SDS011;6343;50.868;4.700;2023-04-24T09:12:07;13.53;;;5.23;;
12554;SDS011;6343;50.868;4.700;2023-04-24T09:14:35;12.73;;;6.27;;
12554;SDS011;6343;50.868;4.700;2023-04-24T09:17:04;15.47;;;4.70;;
12554;SDS011;6343;50.868;4.700;2023-04-24T09:19:31;15.20;;;5.27;;
12554;SDS011;6343;50.868;4.700;2023-04-24T09:21:57;13.77;;;5.00;;
12554;SDS011;6343;50.868;4.700;2023-04-24T09:24:23;10.43;;;4.70;;
12554;SDS011;6343;50.868;4.700;2023-04-24T09:26:55;12.87;;;5.27;;
12554;SDS011;6343;50.868;4.700;2023-04-24T09:29:26;13.53;;;4.13;;
12554;SDS011;6343;50.868;4.700;2023-04-24T09:31:53;8.73;;;4.20;;
12554;SDS011;6343;50.868;4.700;2023-04-24T09:34:23;14.07;;;5.03;;
12554;SDS011;6343;50.868;4.700;2023-04-24T09:36:49;10.67;;;4.40;;
12554;SDS011;6343;50.868;4.700;2023-04-24T09:39:16;9.30;;;4.60;;
12554;SDS011;6343;50.868;4.700;2023-04-24T09:41:49;7.90;;;4.27;;
12554;SDS011;6343;50.868;4.700;2023-04-24T09:46:42;6.07;;;4.10;;
12554;SDS011;6343;50.868;4.700;2023-04-24T09:49:11;8.73;;;4.30;;
12554;SDS011;6343;50.868;4.700;2023-04-24T09:51:37;10.80;;;3.63;;
12554;SDS011;6343;50.868;4.700;2023-04-24T09:54:04;9.30;;;4.40;;
12554;SDS011;6343;50.868;4.700;2023-04-24T09:56:34;7.47;;;4.23;;
12554;SDS011;6343;50.868;4.700;2023-04-24T09:59:04;10.93;;;4.00;;
12554;SDS011;6343;50.868;4.700;2023-04-24T10:01:30;9.97;;;3.70;;
12554;SDS011;6343;50.868;4.700;2023-04-24T10:03:57;5.33;;;3.10;;
12554;SDS011;6343;50.868;4.700;2023-04-24T10:06:23;8.80;;;4.63;;
12554;SDS011;6343;50.868;4.700;2023-04-24T10:08:55;6.40;;;3.07;;
12554;SDS011;6343;50.868;4.700;2023-04-24T10:11:23;7.97;;;3.47;;
12554;SDS011;6343;50.868;4.700;2023-04-24T10:13:50;11.90;;;3.87;;
12554;SDS011;6343;50.868;4.700;2023-04-24T10:16:17;8.37;;;3.17;;
12554;SDS011;6343;50.868;4.700;2023-04-24T10:18:43;8.03;;;3.80;;
12554;SDS011;6343;50.868;4.700;2023-04-24T10:21:09;14.33;;;6.80;;
12554;SDS011;6343;50.868;4.700;2023-04-24T10:23:35;6.70;;;3.10;;
12554;SDS011;6343;50.868;4.700;2023-04-24T10:26:02;7.03;;;3.30;;
12554;SDS011;6343;50.868;4.700;2023-04-24T10:28:29;7.97;;;3.33;;
12554;SDS011;6343;50.868;4.700;2023-04-24T10:30:56;7.00;;;3.50;;
12554;SDS011;6343;50.868;4.700;2023-04-24T10:33:23;8.17;;;3.30;;
12554;SDS011;6343;50.868;4.700;2023-04-24T10:35:49;6.67;;;3.17;;
12554;SDS011;6343;50.868;4.700;2023-04-24T10:38:17;6.43;;;3.10;;
12554;SDS011;6343;50.868;4.700;2023-04-24T10:40:44;8.53;;;3.77;;
12554;SDS011;6343;50.868;4.700;2023-04-24T10:43:10;6.23;;;3.40;;
12554;SDS011;6343;50.868;4.700;2023-04-24T10:45:37;7.20;;;3.10;;
12554;SDS011;6343;50.868;4.700;2023-04-24T10:48:04;9.43;;;3.40;;
12554;SDS011;6343;50.868;4.700;2023-04-24T10:50:50;11.50;;;5.20;;
12554;SDS011;6343;50.868;4.700;2023-04-24T10:53:18;11.53;;;3.40;;
12554;SDS011;6343;50.868;4.700;2023-04-24T10:55:46;7.33;;;3.47;;
12554;SDS011;6343;50.868;4.700;2023-04-24T10:58:12;13.60;;;3.70;;
12554;SDS011;6343;50.868;4.700;2023-04-24T11:00:40;5.57;;;3.17;;
12554;SDS011;6343;50.868;4.700;2023-04-24T11:03:07;6.13;;;3.17;;
12554;SDS011;6343;50.868;4.700;2023-04-24T11:05:50;7.20;;;3.23;;
12554;SDS011;6343;50.868;4.700;2023-04-24T11:08:27;9.53;;;3.43;;
12554;SDS011;6343;50.868;4.700;2023-04-24T11:11:01;7.77;;;3.20;;
12554;SDS011;6343;50.868;4.700;2023-04-24T11:16:21;7.70;;;3.60;;
12554;SDS011;6343;50.868;4.700;2023-04-24T11:26:53;7.90;;;3.30;;
12554;SDS011;6343;50.868;4.700;2023-04-24T11:29:20;10.53;;;3.77;;
12554;SDS011;6343;50.868;4.700;2023-04-24T11:31:49;5.70;;;3.47;;
12554;SDS011;6343;50.868;4.700;2023-04-24T11:34:16;9.67;;;3.43;;
12554;SDS011;6343;50.868;4.700;2023-04-24T11:36:43;5.30;;;3.47;;
12554;SDS011;6343;50.868;4.700;2023-04-24T11:39:10;5.60;;;3.13;;
12554;SDS011;6343;50.868;4.700;2023-04-24T11:41:36;5.13;;;3.43;;
12554;SDS011;6343;50.868;4.700;2023-04-24T11:44:03;12.30;;;3.67;;
12554;SDS011;6343;50.868;4.700;2023-04-24T11:46:31;9.10;;;3.50;;
12554;SDS011;6343;50.868;4.700;2023-04-24T11:48:58;8.10;;;3.93;;
12554;SDS011;6343;50.868;4.700;2023-04-24T11:51:25;11.70;;;3.80;;
12554;SDS011;6343;50.868;4.700;2023-04-24T11:53:52;6.70;;;3.73;;
12554;SDS011;6343;50.868;4.700;2023-04-24T11:56:19;9.40;;;3.80;;
12554;SDS011;6343;50.868;4.700;2023-04-24T11:58:45;9.73;;;3.77;;
12554;SDS011;6343;50.868;4.700;2023-04-24T12:01:12;6.80;;;3.53;;
12554;SDS011;6343;50.868;4.700;2023-04-24T12:03:38;5.90;;;3.53;;
12554;SDS011;6343;50.868;4.700;2023-04-24T12:06:09;8.33;;;3.83;;
12554;SDS011;6343;50.868;4.700;2023-04-24T12:08:36;10.30;;;3.97;;
12554;SDS011;6343;50.868;4.700;2023-04-24T12:11:03;5.60;;;3.23;;
12554;SDS011;6343;50.868;4.700;2023-04-24T12:13:30;8.00;;;3.70;;
12554;SDS011;6343;50.868;4.700;2023-04-24T12:15:57;8.67;;;3.67;;
12554;SDS011;6343;50.868;4.700;2023-04-24T12:18:23;7.47;;;3.93;;
12554;SDS011;6343;50.868;4.700;2023-04-24T12:20:49;9.60;;;4.03;;
12554;SDS011;6343;50.868;4.700;2023-04-24T12:23:15;6.63;;;3.80;;
12554;SDS011;6343;50.868;4.700;2023-04-24T12:25:42;4.43;;;3.53;;
12554;SDS011;6343;50.868;4.700;2023-04-24T12:28:09;8.23;;;3.50;;
12554;SDS011;6343;50.868;4.700;2023-04-24T12:30:49;6.70;;;3.80;;
12554;SDS011;6343;50.868;4.700;2023-04-24T12:33:19;4.10;;;3.40;;
12554;SDS011;6343;50.868;4.700;2023-04-24T12:35:45;5.77;;;3.70;;
12554;SDS011;6343;50.868;4.700;2023-04-24T12:38:12;6.20;;;3.67;;
12554;SDS011;6343;50.868;4.700;2023-04-24T12:40:39;6.00;;;3.97;;
12554;SDS011;6343;50.868;4.700;2023-04-24T12:43:13;5.40;;;3.40;;
12554;SDS011;6343;50.868;4.700;2023-04-24T12:45:40;9.57;;;4.03;;
12554;SDS011;6343;50.868;4.700;2023-04-24T12:48:06;10.27;;;3.50;;
12554;SDS011;6343;50.868;4.700;2023-04-24T12:50:32;5.00;;;2.80;;
12554;SDS011;6343;50.868;4.700;2023-04-24T12:52:59;5.87;;;3.47;;
12554;SDS011;6343;50.868;4.700;2023-04-24T12:55:25;6.13;;;3.27;;
12554;SDS011;6343;50.868;4.700;2023-04-24T12:57:51;5.80;;;3.37;;
12554;SDS011;6343;50.868;4.700;2023-04-24T13:00:20;6.40;;;3.60;;
12554;SDS011;6343;50.868;4.700;2023-04-24T13:02:46;5.77;;;3.33;;
12554;SDS011;6343;50.868;4.700;2023-04-24T13:05:12;5.97;;;3.43;;
12554;SDS011;6343;50.868;4.700;2023-04-24T13:07:39;8.50;;;3.67;;
12554;SDS011;6343;50.868;4.700;2023-04-24T13:10:05;5.60;;;3.30;;
12554;SDS011;6343;50.868;4.700;2023-04-24T13:12:31;7.07;;;3.40;;
12554;SDS011;6343;50.868;4.700;2023-04-24T13:14:58;5.20;;;3.23;;
12554;SDS011;6343;50.868;4.700;2023-04-24T13:17:24;4.87;;;2.80;;
12554;SDS011;6343;50.868;4.700;2023-04-24T13:19:51;5.47;;;3.30;;
12554;SDS011;6343;50.868;4.700;2023-04-24T13:22:17;4.10;;;3.17;;
12554;SDS011;6343;50.868;4.700;2023-04-24T13:24:44;7.00;;;3.30;;
12554;SDS011;6343;50.868;4.700;2023-04-24T13:27:10;5.50;;;3.53;;
12554;SDS011;6343;50.868;4.700;2023-04-24T13:29:36;8.07;;;3.33;;
12554;SDS011;6343;50.868;4.700;2023-04-24T13:32:03;6.20;;;4.13;;
12554;SDS011;6343;50.868;4.700;2023-04-24T13:34:29;5.07;;;3.30;;
12554;SDS011;6343;50.868;4.700;2023-04-24T13:36:56;6.33;;;3.27;;
12554;SDS011;6343;50.868;4.700;2023-04-24T13:39:22;7.00;;;2.80;;
12554;SDS011;6343;50.868;4.700;2023-04-24T13:41:48;6.40;;;2.93;;
12554;SDS011;6343;50.868;4.700;2023-04-24T13:44:15;7.67;;;3.50;;
12554;SDS011;6343;50.868;4.700;2023-04-24T13:46:42;7.87;;;3.00;;
12554;SDS011;6343;50.868;4.700;2023-04-24T13:49:11;7.13;;;2.97;;
12554;SDS011;6343;50.868;4.700;2023-04-24T13:51:40;4.73;;;2.50;;
12554;SDS011;6343;50.868;4.700;2023-04-24T13:54:07;6.70;;;2.63;;
12554;SDS011;6343;50.868;4.700;2023-04-24T13:56:33;4.10;;;2.03;;
12554;SDS011;6343;50.868;4.700;2023-04-24T13:58:59;5.93;;;2.33;;
12554;SDS011;6343;50.868;4.700;2023-04-24T14:01:26;4.00;;;2.20;;
12554;SDS011;6343;50.868;4.700;2023-04-24T14:03:52;4.10;;;2.63;;
12554;SDS011;6343;50.868;4.700;2023-04-24T14:06:19;7.13;;;2.63;;
12554;SDS011;6343;50.868;4.700;2023-04-24T14:08:45;7.33;;;2.83;;
12554;SDS011;6343;50.868;4.700;2023-04-24T14:11:11;5.27;;;2.57;;
12554;SDS011;6343;50.868;4.700;2023-04-24T14:13:37;7.17;;;2.83;;
12554;SDS011;6343;50.868;4.700;2023-04-24T14:16:04;5.20;;;2.70;;
12554;SDS011;6343;50.868;4.700;2023-04-24T14:18:30;8.97;;;2.77;;
12554;SDS011;6343;50.868;4.700;2023-04-24T14:20:56;4.83;;;2.50;;
12554;SDS011;6343;50.868;4.700;2023-04-24T14:23:22;5.60;;;2.43;;
12554;SDS011;6343;50.868;4.700;2023-04-24T14:25:49;5.70;;;2.60;;
12554;SDS011;6343;50.868;4.700;2023-04-24T14:28:17;3.60;;;2.20;;
12554;SDS011;6343;50.868;4.700;2023-04-24T14:30:44;6.20;;;2.57;;
12554;SDS011;6343;50.868;4.700;2023-04-24T14:33:10;5.07;;;2.40;;
12554;SDS011;6343;50.868;4.700;2023-04-24T14:35:37;5.10;;;2.47;;
12554;SDS011;6343;50.868;4.700;2023-04-24T14:38:03;3.67;;;2.07;;
12554;SDS011;6343;50.868;4.700;2023-04-24T14:40:30;3.50;;;2.07;;
12554;SDS011;6343;50.868;4.700;2023-04-24T14:42:57;3.40;;;2.20;;
12554;SDS011;6343;50.868;4.700;2023-04-24T14:45:24;5.10;;;2.50;;
12554;SDS011;6343;50.868;4.700;2023-04-24T14:47:50;4.20;;;2.30;;
12554;SDS011;6343;50.868;4.700;2023-04-24T14:50:16;5.43;;;2.33;;
12554;SDS011;6343;50.868;4.700;2023-04-24T14:52:42;6.07;;;2.50;;
12554;SDS011;6343;50.868;4.700;2023-04-24T14:55:08;5.47;;;2.53;;
12554;SDS011;6343;50.868;4.700;2023-04-24T14:57:35;5.17;;;2.50;;
12554;SDS011;6343;50.868;4.700;2023-04-24T15:00:02;4.50;;;2.20;;
12554;SDS011;6343;50.868;4.700;2023-04-24T15:02:30;2.80;;;1.90;;
12554;SDS011;6343;50.868;4.700;2023-04-24T15:04:56;4.70;;;2.33;;